Create Custom Reports and Graphics: Custom Report

Stanford Met Tower

Current Conditions

8/23/19 11:15 PM (-07:00)
Updated Every 15 Minutes
Temp 63.0 °F   1.9
RH 85 %   0
Dew Pt 57.7 °F   2.3
Wind Dir E | 101 °
Wind Spd 3.1 mph   1.6
Wind Gust 5.0 mph   1.2
Solar Rad 0 W/m2   0
Daily Min Temp 55.7 °F   4.4
Daily Max Temp 86.8 °F   8.5
Daily Max Wind 18.3 mph   4.7
Daily Rain 0.00 In
Min Temp Yest 60.1 °F
Max Temp Yest 95.3 °F
Max Wind Yest 13.6 mph
Rain Yest 0.00 In
Seasonal Rainfall 0.00 In

Last 48 Hours

Stanford Met Tower

Hourly Data | America/Los_Angeles
as of 8/24/19 12:18 AM PDT
Date & Time Temp (°F) Upper Temp (°F) Temp Inversion (°F) RH (%) Dew Pt (°F) Wind Dir (°) Wind Spd (mph) Wind Gust (mph) Latest Rain (In) ETo Hr (in) ETo 2pm (In) Daily Rain (In) Daily Min Temp (°F) Daily Max Temp (°F)
8/23/19 - 2300 63.1 63.7 0.6 85 57.7 SE | 125 3.9 6.2 0.00 0.000 0.20 0.00 55.7 86.8
8/23/19 - 2200 64.1 64.6 0.6 81 57.8 E | 84 4.2 7.0 0.00 0.000 0.20 0.00 55.7 86.8
8/23/19 - 2100 65.0 65.2 0.2 78 57.4 NE | 51 3.5 7.4 0.00 0.000 0.20 0.00 55.7 86.8
8/23/19 - 2000 65.6 65.5 -0.2 71 56.2 NNE | 33 4.0 8.1 0.00 0.000 0.20 0.00 55.7 86.8
8/23/19 - 1900 68.9 67.6 -1.3 62 57.1 ENE | 70 4.7 8.8 0.00 0.000 0.20 0.00 55.7 86.8
8/23/19 - 1800 75.9 73.8 -2.0 50 57.2 SSW | 205 8.0 18.3 0.00 0.006 0.20 0.00 55.7 86.8
8/23/19 - 1700 77.9 74.7 -3.2 41 57.2 NNE | 19 6.7 14.2 0.00 0.011 0.20 0.00 55.7 86.8
8/23/19 - 1600 80.3 75.4 -4.9 42 58.6 N | 3 9.0 16.4 0.00 0.018 0.20 0.00 55.7 86.8
8/23/19 - 1500 83.7 76.4 -7.2 41 60.5 N | 356 7.6 14.2 0.00 0.022 0.20 0.00 55.7 86.8
8/23/19 - 1400 82.4 76.6 -5.8 40 58.5 N | 357 8.6 14.2 0.00 0.025 0.20 0.00 55.7 86.8
8/23/19 - 1300 84.3 75.7 -8.6 40 58.8 N | 4 7.9 14.4 0.00 0.026 0.20 0.00 55.7 86.8
8/23/19 - 1200 83.6 75.4 -8.2 43 60.4 N | 8 7.0 12.6 0.00 0.025 0.20 0.00 55.7 85.1
8/23/19 - 1100 82.0 73.6 -8.4 45 59.7 N | 6 6.4 13.0 0.00 0.023 0.20 0.00 55.7 82.9
8/23/19 - 1000 80.4 73.2 -7.2 45 61.2 NNE | 21 3.7 8.6 0.00 0.018 0.20 0.00 55.7 82.3
8/23/19 - 0900 75.4 70.1 -5.4 53 60.1 E | 86 3.4 7.6 0.00 0.013 0.20 0.00 55.7 76.3
8/23/19 - 0800 70.4 67.0 -3.4 53 59.4 NE | 48 2.7 7.3 0.00 0.007 0.20 0.00 55.7 70.4
8/23/19 - 0700 64.0 64.3 0.3 91 59.2 SSW | 193 3.0 6.6 0.00 0.001 0.20 0.00 55.7 64.0
8/23/19 - 0600 56.6 57.8 1.3 90 52.5 SW | 225 3.5 4.6 0.00 0.000 0.20 0.00 55.7 61.1
8/23/19 - 0500 56.4 57.1 0.7 88 52.3 WSW | 238 2.8 4.8 0.00 0.000 0.20 0.00 55.9 61.1
8/23/19 - 0400 57.6 58.7 1.1 88 53.2 SSW | 205 4.6 7.2 0.00 0.000 0.20 0.00 57.1 61.1
8/23/19 - 0300 57.6 58.5 0.9 87 53.2 SSW | 204 3.9 6.0 0.00 0.000 0.20 0.00 57.3 61.1
8/23/19 - 0200 59.3 59.9 0.6 88 54.4 SSW | 202 3.1 5.9 0.00 0.000 0.20 0.00 58.3 61.1
8/23/19 - 0100 59.0 60.5 1.5 87 55.0 SE | 125 2.2 4.2 0.00 0.000 0.20 0.00 59.0 61.1
8/23/19 - 0000 60.4 63.2 2.9 86 55.4 ESE | 123 3.8 6.2 0.00 0.000 0.20 0.00 60.1 95.3
8/22/19 - 2300 60.5 63.0 2.6 85 55.4 NE | 38 1.9 5.5 0.00 0.000 0.20 0.00 60.1 95.3
8/22/19 - 2200 61.8 64.4 2.7 81 55.7 NE | 49 2.1 3.5 0.00 0.000 0.20 0.00 61.8 95.3
8/22/19 - 2100 63.9 66.2 2.3 77 56.6 E | 83 3.2 5.5 0.00 0.000 0.20 0.00 63.9 95.3
8/22/19 - 2000 68.5 69.2 0.7 61 54.4 NNE | 32 4.4 7.4 0.00 0.000 0.20 0.00 65.0 95.3
8/22/19 - 1900 72.7 72.2 -0.5 49 54.8 NE | 35 5.7 9.0 0.00 0.001 0.20 0.00 65.0 95.3
8/22/19 - 1800 82.1 79.1 -2.9 33 55.7 NNE | 27 5.3 8.8 0.00 0.006 0.20 0.00 65.0 95.3
8/22/19 - 1700 91.7 88.9 -2.8 24 53.4 NW | 305 5.8 13.2 0.00 0.013 0.20 0.00 65.0 95.3
8/22/19 - 1600 94.1 89.3 -4.9 25 56.0 NNW | 331 7.3 13.6 0.00 0.019 0.20 0.00 65.0 94.6
8/22/19 - 1500 93.8 88.1 -5.7 31 62.4 N | 4 6.4 12.0 0.00 0.024 0.20 0.00 65.0 94.2
8/22/19 - 1400 91.9 83.9 -8.0 35 62.7 N | 2 6.6 12.7 0.00 0.026 0.20 0.00 65.0 92.3
8/22/19 - 1300 89.1 81.8 -7.3 39 63.4 N | 351 6.6 12.9 0.00 0.027 0.20 0.00 65.0 92.2
8/22/19 - 1200 89.2 81.3 -8.0 43 64.9 NNW | 329 5.1 10.4 0.00 0.026 0.20 0.00 65.0 90.5
8/22/19 - 1100 86.0 81.0 -5.0 44 64.7 NNW | 347 3.7 9.2 0.00 0.023 0.20 0.00 65.0 87.6
8/22/19 - 1000 82.5 76.9 -5.6 48 64.8 NE | 50 3.1 7.2 0.00 0.019 0.20 0.00 65.0 83.5
8/22/19 - 0900 76.7 71.2 -5.5 56 64.7 E | 81 3.7 7.1 0.00 0.012 0.20 0.00 65.0 78.1
8/22/19 - 0800 70.4 68.4 -2.1 76 64.1 E | 81 3.7 7.1 0.00 0.004 0.20 0.00 65.0 70.7
8/22/19 - 0700 68.8 68.2 -0.6 87 64.1 S | 177 3.0 6.7 0.00 0.001 0.20 0.00 65.0 69.5
8/22/19 - 0600 66.2 66.3 0.1 89 62.6 S | 184 2.2 6.1 0.00 0.000 0.20 0.00 65.0 69.5
8/22/19 - 0500 65.2 65.4 0.3 88 62.2 S | 188 2.0 5.0 0.00 0.000 0.20 0.00 65.2 69.5
8/22/19 - 0400 67.5 67.6 0.1 89 63.8 ESE | 123 3.1 6.1 0.00 0.000 0.20 0.00 67.3 69.5
8/22/19 - 0300 67.8 67.9 0.1 89 64.1 ESE | 107 4.0 7.8 0.00 0.000 0.20 0.00 67.3 69.5
8/22/19 - 0200 67.4 68.2 0.9 88 63.7 ESE | 118 5.0 9.4 0.00 0.000 0.20 0.00 67.3 69.5
8/22/19 - 0100 68.2 68.9 0.7 85 63.4 ESE | 110 4.5 8.4 0.00 0.000 0.20 0.00 68.1 69.5
8/22/19 - 0000 69.4 70.1 0.7 83 63.4 E | 99 4.5 9.3 0.00 0.000 0.20 0.00 51.8 94.6
Max 94.1 89.3 2.9 91 64.9 - 9.0 18.3 0.00 0.027 0.20 0.00 68.1 95.3
Avg 72.7 70.5 -2.1 64 59.0 - 4.6 8.9 0.00 0.008 0.20 - - -
Min 56.4 57.1 -8.6 24 52.3 - 1.9 3.5 0.00 0.000 0.20 0.00 51.8 61.1
Total - - - - - - - - 0.00 0.396 - - - -
Calm: 0.0%
Calm: 0.0%